createdAt,value
2022-12-31T00:00:12.333Z,12.80
2022-12-31T00:02:40.058Z,12.80
2022-12-31T00:05:07.757Z,12.90
2022-12-31T00:10:04.628Z,12.80
2022-12-31T00:12:31.756Z,12.80
2022-12-31T00:14:58.535Z,12.80
2022-12-31T00:17:25.414Z,12.70
2022-12-31T00:19:52.201Z,12.60
2022-12-31T00:22:19.031Z,12.50
2022-12-31T00:24:45.877Z,12.40
2022-12-31T00:27:12.983Z,12.40
2022-12-31T00:29:39.961Z,12.30
2022-12-31T00:32:06.741Z,12.30
2022-12-31T00:34:33.666Z,12.20
2022-12-31T00:37:00.660Z,12.20
2022-12-31T00:39:27.535Z,12.20
2022-12-31T00:41:54.365Z,12.20
2022-12-31T00:44:21.341Z,12.10
2022-12-31T00:46:48.455Z,12.10
2022-12-31T00:49:15.371Z,12.00
2022-12-31T00:51:42.170Z,12.00
2022-12-31T00:54:10.104Z,12.10
2022-12-31T00:56:36.880Z,12.10
2022-12-31T00:59:03.963Z,12.00
2022-12-31T01:01:33.836Z,12.10
2022-12-31T01:04:15.421Z,12.10
2022-12-31T01:06:43.729Z,12.10
2022-12-31T01:09:12.330Z,12.10
2022-12-31T01:11:39.510Z,12.00
2022-12-31T01:14:20.392Z,12.10
2022-12-31T01:16:49.576Z,12.00
2022-12-31T01:19:34.532Z,11.90
2022-12-31T01:22:01.371Z,12.00
2022-12-31T01:24:28.156Z,12.00
2022-12-31T01:26:57.829Z,12.00
2022-12-31T01:29:26.387Z,12.00
2022-12-31T01:31:53.255Z,12.00
2022-12-31T01:34:20.092Z,11.90
2022-12-31T01:36:46.977Z,11.90
2022-12-31T01:39:13.789Z,11.90
2022-12-31T01:41:43.837Z,11.90
2022-12-31T01:44:13.650Z,11.90
2022-12-31T01:47:05.384Z,11.90
2022-12-31T01:49:38.247Z,11.90
2022-12-31T01:52:13.236Z,11.90
2022-12-31T01:54:48.988Z,11.90
2022-12-31T01:57:16.574Z,11.90
2022-12-31T01:59:45.082Z,11.90
2022-12-31T02:02:15.041Z,12.00
2022-12-31T02:04:42.173Z,12.00
2022-12-31T02:07:10.015Z,12.00
2022-12-31T02:09:39.262Z,12.00
2022-12-31T02:12:08.260Z,12.00
2022-12-31T02:14:42.328Z,12.00
2022-12-31T02:17:36.915Z,12.10
2022-12-31T02:20:41.132Z,12.10
2022-12-31T02:23:41.616Z,12.10
2022-12-31T02:26:45.244Z,12.10
2022-12-31T02:29:47.004Z,12.10
2022-12-31T02:32:17.670Z,12.10
2022-12-31T02:34:49.951Z,12.00
2022-12-31T02:37:20.351Z,12.10
2022-12-31T02:39:48.101Z,12.00
2022-12-31T02:42:15.156Z,11.90
2022-12-31T02:44:42.581Z,12.00
2022-12-31T02:47:09.344Z,12.00
2022-12-31T02:49:58.687Z,12.00
2022-12-31T02:52:47.639Z,12.00
2022-12-31T02:55:24.549Z,12.00
2022-12-31T02:58:47.964Z,11.90
2022-12-31T03:01:38.527Z,12.00
2022-12-31T03:04:24.863Z,12.00
2022-12-31T03:06:53.503Z,12.00
2022-12-31T03:09:20.511Z,12.10
2022-12-31T03:12:06.460Z,12.00
2022-12-31T03:15:36.249Z,12.10
2022-12-31T03:18:08.483Z,12.10
2022-12-31T03:21:08.852Z,12.10
2022-12-31T03:23:41.694Z,12.10
2022-12-31T03:26:11.519Z,12.10
2022-12-31T03:28:40.644Z,12.20
2022-12-31T03:31:07.615Z,12.20
2022-12-31T03:33:40.229Z,12.20
2022-12-31T03:36:10.210Z,12.30
2022-12-31T03:38:37.202Z,12.30
2022-12-31T03:41:04.265Z,12.40
2022-12-31T03:43:31.355Z,12.40
2022-12-31T03:46:01.660Z,12.50
2022-12-31T03:48:28.703Z,12.60
2022-12-31T03:50:55.587Z,12.70
2022-12-31T03:53:22.446Z,12.70
2022-12-31T03:55:53.578Z,12.80
2022-12-31T03:58:21.027Z,12.80
2022-12-31T04:00:47.907Z,12.80
2022-12-31T04:03:14.788Z,12.80
2022-12-31T04:05:41.737Z,12.80
2022-12-31T04:08:08.549Z,12.90
2022-12-31T04:10:35.415Z,12.90
2022-12-31T04:13:04.582Z,12.90
2022-12-31T04:15:32.199Z,12.80
2022-12-31T04:17:59.058Z,12.80
2022-12-31T04:20:26.023Z,12.80
2022-12-31T04:22:52.903Z,12.80
2022-12-31T04:25:19.778Z,12.70
2022-12-31T04:27:47.728Z,12.70
2022-12-31T04:30:14.875Z,12.60
2022-12-31T04:32:42.372Z,12.40
2022-12-31T04:35:10.190Z,12.40
2022-12-31T04:37:39.941Z,12.20
2022-12-31T04:40:08.680Z,12.20
2022-12-31T04:42:36.319Z,12.20
2022-12-31T04:45:04.064Z,12.10
2022-12-31T04:47:30.894Z,12.10
2022-12-31T04:49:57.722Z,12.10
2022-12-31T04:52:24.571Z,12.10
2022-12-31T04:54:51.380Z,11.90
2022-12-31T04:57:18.254Z,11.80
2022-12-31T04:59:45.098Z,11.90
2022-12-31T05:02:12.056Z,11.90
2022-12-31T05:04:38.982Z,11.90
2022-12-31T05:07:05.821Z,11.90
2022-12-31T05:09:32.707Z,11.80
2022-12-31T05:11:59.541Z,11.80
2022-12-31T05:14:26.404Z,11.70
2022-12-31T05:16:54.167Z,11.80
2022-12-31T05:19:21.149Z,11.70
2022-12-31T05:22:08.527Z,11.70
2022-12-31T05:24:35.790Z,11.70
2022-12-31T05:27:02.779Z,11.70
2022-12-31T05:29:29.692Z,11.80
2022-12-31T05:31:56.528Z,11.80
2022-12-31T05:34:23.348Z,11.70
2022-12-31T05:36:50.105Z,11.80
2022-12-31T05:39:17.033Z,11.80
2022-12-31T05:41:43.809Z,11.80
2022-12-31T05:44:11.017Z,12.00
2022-12-31T05:46:37.861Z,11.90
2022-12-31T05:49:04.964Z,11.90
2022-12-31T05:51:31.859Z,11.80
2022-12-31T05:53:58.705Z,11.90
2022-12-31T05:56:25.540Z,11.90
2022-12-31T05:58:52.415Z,11.90
2022-12-31T06:01:19.247Z,11.90
2022-12-31T06:03:46.669Z,11.90
2022-12-31T06:06:13.688Z,11.90
2022-12-31T06:08:40.552Z,11.90
2022-12-31T06:11:07.395Z,11.80
2022-12-31T06:13:34.237Z,11.90
2022-12-31T06:16:08.922Z,12.00
2022-12-31T06:18:35.883Z,12.10
2022-12-31T06:21:04.081Z,12.10
2022-12-31T06:23:30.976Z,12.30
2022-12-31T06:26:01.327Z,12.40
2022-12-31T06:28:28.125Z,12.50
2022-12-31T06:31:00.330Z,12.60
2022-12-31T06:33:27.495Z,12.70
2022-12-31T06:35:59.190Z,12.70
2022-12-31T06:38:27.803Z,12.80
2022-12-31T06:40:54.694Z,12.90
2022-12-31T06:43:22.088Z,13.10
2022-12-31T06:45:49.459Z,13.10
2022-12-31T06:48:16.356Z,13.10
2022-12-31T06:50:43.182Z,13.20
2022-12-31T06:53:11.938Z,13.20
2022-12-31T06:55:39.013Z,13.20
2022-12-31T06:58:06.042Z,13.30
2022-12-31T07:00:33.200Z,13.50
2022-12-31T07:03:10.023Z,13.50
2022-12-31T07:05:46.393Z,13.60
2022-12-31T07:08:37.092Z,13.60
2022-12-31T07:11:17.977Z,13.30
2022-12-31T07:14:15.395Z,13.00
2022-12-31T07:16:56.121Z,12.80
2022-12-31T07:19:37.336Z,12.80
2022-12-31T07:22:04.689Z,12.80
2022-12-31T07:24:31.798Z,12.60
2022-12-31T07:27:21.185Z,12.50
2022-12-31T07:30:06.406Z,12.40
2022-12-31T07:32:45.059Z,12.30
2022-12-31T07:35:45.575Z,12.30
2022-12-31T07:38:40.167Z,12.20
2022-12-31T07:41:12.316Z,12.10
2022-12-31T07:44:04.153Z,12.10
2022-12-31T07:46:57.036Z,12.10
2022-12-31T07:49:25.627Z,12.00
2022-12-31T07:51:53.086Z,12.00
2022-12-31T07:54:20.613Z,12.00
2022-12-31T07:56:48.163Z,11.90
2022-12-31T07:59:24.203Z,11.90
2022-12-31T08:02:06.950Z,12.00
2022-12-31T08:05:03.254Z,12.00
2022-12-31T08:07:32.771Z,12.00
2022-12-31T08:10:04.738Z,12.20
2022-12-31T08:12:35.854Z,12.50
2022-12-31T08:15:03.437Z,12.80
2022-12-31T08:17:30.427Z,13.10
2022-12-31T08:19:57.506Z,13.30
2022-12-31T08:22:56.636Z,13.40
2022-12-31T08:25:45.275Z,13.50
2022-12-31T08:28:13.970Z,13.50
2022-12-31T08:31:16.274Z,13.60
2022-12-31T08:33:59.359Z,13.70
2022-12-31T08:36:34.870Z,13.70
2022-12-31T08:39:13.239Z,13.80
2022-12-31T08:41:43.185Z,13.90
2022-12-31T08:44:47.804Z,14.10
2022-12-31T08:47:23.069Z,14.30
2022-12-31T08:49:50.108Z,14.30
2022-12-31T08:52:23.299Z,14.40
2022-12-31T08:54:50.400Z,14.70
2022-12-31T08:57:33.612Z,14.90
2022-12-31T09:00:16.739Z,14.90
2022-12-31T09:03:16.259Z,15.20
2022-12-31T09:06:06.596Z,15.30
2022-12-31T09:08:58.936Z,15.30
2022-12-31T09:12:07.797Z,15.50
2022-12-31T09:15:01.528Z,15.60
2022-12-31T09:17:48.706Z,15.60
2022-12-31T09:20:26.105Z,15.70
2022-12-31T09:22:54.710Z,15.80
2022-12-31T09:25:23.471Z,16.00
2022-12-31T09:28:09.298Z,16.10
2022-12-31T09:31:02.937Z,16.20
2022-12-31T09:33:38.822Z,16.20
2022-12-31T09:36:08.293Z,16.40
2022-12-31T09:39:10.819Z,16.50
2022-12-31T09:42:13.719Z,16.50
2022-12-31T09:44:43.325Z,16.50
2022-12-31T09:47:46.987Z,16.60
2022-12-31T09:50:21.352Z,16.60
2022-12-31T09:53:08.639Z,16.60
2022-12-31T09:55:47.809Z,16.60
2022-12-31T09:58:44.930Z,16.60
2022-12-31T10:01:30.330Z,16.60
2022-12-31T10:04:02.889Z,16.70
2022-12-31T10:06:55.045Z,16.80
2022-12-31T10:09:51.338Z,16.70
2022-12-31T10:12:34.866Z,16.70
2022-12-31T10:15:29.282Z,16.70
2022-12-31T10:18:23.703Z,16.80
2022-12-31T10:21:45.255Z,16.70
2022-12-31T10:24:33.935Z,16.90
2022-12-31T10:27:07.256Z,17.00
2022-12-31T10:29:56.959Z,16.90
2022-12-31T10:32:36.860Z,16.80
2022-12-31T10:35:31.475Z,16.90
2022-12-31T10:38:23.374Z,16.80
2022-12-31T10:41:21.166Z,16.90
2022-12-31T10:44:12.887Z,16.90
2022-12-31T10:47:01.451Z,17.00
2022-12-31T10:49:59.000Z,17.00
2022-12-31T10:52:56.132Z,17.00
2022-12-31T10:55:37.813Z,16.90
2022-12-31T10:58:10.665Z,16.70
2022-12-31T11:01:09.761Z,16.60
2022-12-31T11:04:01.467Z,16.50
2022-12-31T11:06:55.513Z,16.50
2022-12-31T11:09:44.958Z,16.50
2022-12-31T11:12:33.090Z,16.50
2022-12-31T11:15:27.323Z,16.60
2022-12-31T11:18:15.511Z,16.60
2022-12-31T11:21:24.574Z,16.50
2022-12-31T11:24:33.664Z,16.50
2022-12-31T11:27:21.360Z,16.50
2022-12-31T11:30:16.598Z,16.20
2022-12-31T11:32:54.036Z,15.80
2022-12-31T11:35:29.781Z,15.50
2022-12-31T11:38:10.531Z,15.30
2022-12-31T11:40:45.289Z,15.30
2022-12-31T11:43:35.621Z,15.30
2022-12-31T11:46:15.486Z,15.30
2022-12-31T11:48:45.285Z,15.60
2022-12-31T11:51:50.832Z,15.70
2022-12-31T11:54:42.122Z,15.70
2022-12-31T11:57:16.692Z,16.00
2022-12-31T11:59:43.819Z,16.00
2022-12-31T12:02:26.928Z,16.10
2022-12-31T12:04:56.821Z,16.20
2022-12-31T12:07:24.137Z,16.50
2022-12-31T12:09:54.529Z,16.50
2022-12-31T12:12:22.292Z,16.60
2022-12-31T12:14:54.674Z,16.70
2022-12-31T12:17:34.329Z,16.70
2022-12-31T12:20:25.834Z,16.90
2022-12-31T12:22:55.966Z,16.90
2022-12-31T12:25:26.813Z,16.90
2022-12-31T12:27:54.789Z,17.00
2022-12-31T12:30:26.350Z,16.90
2022-12-31T12:32:56.117Z,16.90
2022-12-31T12:35:33.778Z,16.90
2022-12-31T12:38:07.358Z,16.90
2022-12-31T12:40:35.542Z,16.90
2022-12-31T12:43:03.853Z,16.90
2022-12-31T12:45:51.873Z,17.00
2022-12-31T12:48:29.858Z,17.10
2022-12-31T12:50:57.261Z,17.00
2022-12-31T12:53:45.027Z,16.90
2022-12-31T12:56:49.580Z,16.90
2022-12-31T12:59:28.136Z,16.90
2022-12-31T13:02:16.931Z,16.90
2022-12-31T13:05:06.255Z,17.00
2022-12-31T13:07:51.402Z,17.10
2022-12-31T13:10:41.887Z,17.10
2022-12-31T13:14:00.792Z,17.10
2022-12-31T13:17:06.257Z,17.10
2022-12-31T13:19:48.141Z,17.20
2022-12-31T13:22:24.957Z,17.10
2022-12-31T13:25:23.688Z,17.20
2022-12-31T13:27:54.022Z,17.10
2022-12-31T13:30:30.744Z,17.30
2022-12-31T13:33:18.288Z,17.20
2022-12-31T13:36:21.953Z,17.20
2022-12-31T13:38:54.467Z,17.30
2022-12-31T13:41:41.252Z,17.20
2022-12-31T13:44:50.098Z,17.10
2022-12-31T13:47:37.116Z,17.10
2022-12-31T13:50:27.459Z,17.20
2022-12-31T13:53:04.882Z,17.20
2022-12-31T13:55:41.629Z,17.10
2022-12-31T13:58:31.798Z,17.00
2022-12-31T14:01:10.449Z,16.90
2022-12-31T14:03:56.284Z,16.80
2022-12-31T14:06:26.223Z,16.60
2022-12-31T14:08:53.993Z,16.30
2022-12-31T14:11:40.131Z,16.20
2022-12-31T14:14:24.974Z,16.10
2022-12-31T14:17:01.780Z,15.90
2022-12-31T14:19:36.522Z,15.90
2022-12-31T14:22:29.651Z,15.90
2022-12-31T14:25:00.023Z,15.90
2022-12-31T14:27:42.033Z,15.80
2022-12-31T14:30:23.304Z,15.80
2022-12-31T14:33:25.705Z,15.90
2022-12-31T14:36:02.757Z,15.90
2022-12-31T14:38:51.763Z,16.00
2022-12-31T14:41:33.179Z,16.00
2022-12-31T14:44:47.939Z,16.10
2022-12-31T14:47:33.680Z,16.10
2022-12-31T14:50:22.368Z,16.10
2022-12-31T14:52:51.363Z,15.90
2022-12-31T14:55:21.733Z,15.80
2022-12-31T15:00:38.908Z,15.70
2022-12-31T15:03:23.589Z,15.70
2022-12-31T15:06:20.658Z,15.60
2022-12-31T15:08:55.083Z,15.60
2022-12-31T15:11:39.933Z,15.60
2022-12-31T15:14:37.550Z,15.60
2022-12-31T15:17:17.049Z,15.60
2022-12-31T15:20:01.991Z,15.50
2022-12-31T15:22:37.568Z,15.40
2022-12-31T15:25:26.020Z,15.40
2022-12-31T15:27:53.611Z,15.40
2022-12-31T15:30:34.977Z,15.50
2022-12-31T15:33:05.693Z,15.40
2022-12-31T15:35:54.942Z,15.40
2022-12-31T15:38:40.670Z,15.40
2022-12-31T15:41:28.630Z,15.40
2022-12-31T15:44:06.391Z,15.30
2022-12-31T15:46:38.637Z,15.30
2022-12-31T15:49:23.129Z,15.20
2022-12-31T15:52:07.184Z,15.20
2022-12-31T15:54:42.247Z,15.30
2022-12-31T15:57:28.176Z,15.40
2022-12-31T16:00:07.300Z,15.50
2022-12-31T16:02:35.242Z,15.40
2022-12-31T16:05:02.231Z,15.40
2022-12-31T16:07:29.436Z,15.50
2022-12-31T16:09:58.997Z,15.40
2022-12-31T16:12:35.171Z,15.40
2022-12-31T16:15:05.775Z,15.40
2022-12-31T16:17:35.234Z,15.40
2022-12-31T16:20:22.274Z,15.30
2022-12-31T16:22:56.222Z,15.30
2022-12-31T16:25:33.091Z,15.50
2022-12-31T16:28:02.878Z,15.40
2022-12-31T16:30:32.205Z,15.40
2022-12-31T16:33:02.414Z,15.40
2022-12-31T16:35:37.347Z,15.60
2022-12-31T16:38:17.795Z,15.50
2022-12-31T16:41:03.889Z,15.50
2022-12-31T16:43:43.226Z,15.60
2022-12-31T16:46:29.879Z,15.50
2022-12-31T16:49:14.557Z,15.50
2022-12-31T16:51:41.890Z,15.50
2022-12-31T16:54:37.286Z,15.50
2022-12-31T16:57:06.292Z,15.50
2022-12-31T16:59:44.661Z,15.40
2022-12-31T17:02:20.304Z,15.40
2022-12-31T17:04:55.310Z,15.40
2022-12-31T17:07:31.677Z,15.30
2022-12-31T17:10:23.940Z,15.30
2022-12-31T17:15:45.412Z,15.30
2022-12-31T17:18:22.175Z,15.20
2022-12-31T17:20:51.494Z,15.10
2022-12-31T17:23:31.682Z,15.00
2022-12-31T17:26:01.070Z,15.10
2022-12-31T17:28:32.754Z,15.10
2022-12-31T17:31:02.102Z,15.00
2022-12-31T17:33:31.253Z,14.90
2022-12-31T17:36:15.404Z,15.10
2022-12-31T17:38:42.684Z,15.10
2022-12-31T17:41:29.750Z,15.10
2022-12-31T17:43:57.439Z,15.20
2022-12-31T17:46:25.560Z,15.10
2022-12-31T17:49:02.343Z,15.20
2022-12-31T17:51:29.213Z,15.20
2022-12-31T17:53:56.257Z,15.10
2022-12-31T17:56:23.162Z,15.10
2022-12-31T17:58:52.486Z,15.20
2022-12-31T18:01:23.737Z,15.30
2022-12-31T18:03:51.277Z,15.30
2022-12-31T18:06:19.587Z,15.40
2022-12-31T18:08:46.893Z,15.40
2022-12-31T18:11:21.392Z,15.40
2022-12-31T18:13:49.205Z,15.50
2022-12-31T18:16:16.567Z,15.60
2022-12-31T18:18:45.245Z,15.50
2022-12-31T18:21:29.224Z,15.50
2022-12-31T18:26:24.547Z,15.60
2022-12-31T18:28:52.118Z,15.60
2022-12-31T18:31:27.459Z,15.60
2022-12-31T18:33:56.849Z,15.60
2022-12-31T18:36:25.322Z,15.70
2022-12-31T18:38:52.989Z,15.60
2022-12-31T18:41:23.369Z,15.60
2022-12-31T18:43:50.568Z,15.60
2022-12-31T18:46:22.672Z,15.70
2022-12-31T18:48:49.636Z,15.70
2022-12-31T18:51:19.320Z,15.60
2022-12-31T18:53:46.506Z,15.60
2022-12-31T18:56:15.507Z,15.50
2022-12-31T18:58:43.108Z,15.80
2022-12-31T19:01:30.512Z,15.70
2022-12-31T19:04:02.822Z,15.80
2022-12-31T19:06:30.468Z,15.70
2022-12-31T19:08:59.151Z,15.80
2022-12-31T19:11:28.089Z,15.80
2022-12-31T19:13:55.021Z,15.80
2022-12-31T19:16:21.844Z,15.80
2022-12-31T19:18:49.563Z,15.80
2022-12-31T19:21:19.030Z,15.70
2022-12-31T19:23:46.196Z,15.70
2022-12-31T19:26:16.340Z,15.60
2022-12-31T19:28:44.340Z,15.70
2022-12-31T19:31:11.381Z,15.80
2022-12-31T19:33:38.829Z,15.80
2022-12-31T19:36:07.467Z,15.70
2022-12-31T19:38:34.528Z,15.70
2022-12-31T19:41:02.304Z,15.70
2022-12-31T19:43:29.658Z,15.60
2022-12-31T19:45:56.644Z,15.60
2022-12-31T19:48:30.465Z,15.50
2022-12-31T19:50:59.715Z,15.60
2022-12-31T19:53:27.552Z,15.50
2022-12-31T19:55:54.629Z,15.60
2022-12-31T19:58:26.068Z,15.60
2022-12-31T20:01:01.268Z,15.70
2022-12-31T20:03:30.093Z,15.70
2022-12-31T20:06:08.964Z,15.60
2022-12-31T20:08:37.401Z,15.60
2022-12-31T20:11:15.906Z,15.60
2022-12-31T20:13:43.452Z,15.60
2022-12-31T20:16:13.021Z,15.70
2022-12-31T20:18:41.730Z,15.60
2022-12-31T20:21:14.935Z,15.60
2022-12-31T20:23:41.893Z,15.40
2022-12-31T20:26:09.047Z,15.40
2022-12-31T20:28:37.305Z,15.40
2022-12-31T20:31:12.682Z,15.30
2022-12-31T20:33:39.604Z,15.30
2022-12-31T20:36:08.686Z,15.40
2022-12-31T20:38:35.681Z,15.40
2022-12-31T20:41:06.194Z,15.50
2022-12-31T20:43:33.934Z,15.50
2022-12-31T20:46:10.997Z,15.40
2022-12-31T20:48:41.714Z,15.50
2022-12-31T20:51:08.570Z,15.40
2022-12-31T20:53:35.352Z,15.40
2022-12-31T20:56:06.616Z,15.40
2022-12-31T20:58:34.144Z,15.30
2022-12-31T21:01:01.203Z,15.30
2022-12-31T21:04:03.863Z,15.50
2022-12-31T21:06:15.694Z,15.60
2022-12-31T21:08:43.040Z,15.70
2022-12-31T21:11:28.420Z,15.80
2022-12-31T21:13:56.839Z,15.70
2022-12-31T21:16:24.476Z,15.70
2022-12-31T21:18:51.368Z,15.80
2022-12-31T21:21:18.764Z,15.90
2022-12-31T21:23:45.742Z,16.00
2022-12-31T21:26:12.913Z,15.90
2022-12-31T21:28:39.750Z,16.00
2022-12-31T21:31:08.192Z,16.10
2022-12-31T21:33:35.483Z,16.10
2022-12-31T21:36:04.759Z,16.00
2022-12-31T21:38:32.102Z,16.20
2022-12-31T21:41:03.714Z,16.20
2022-12-31T21:43:30.587Z,16.10
2022-12-31T21:46:02.548Z,16.10
2022-12-31T21:48:29.476Z,16.00
2022-12-31T21:51:06.785Z,15.90
2022-12-31T21:53:36.945Z,16.00
2022-12-31T21:56:16.093Z,16.00
2022-12-31T21:59:08.167Z,16.00
2022-12-31T22:01:53.968Z,16.00
2022-12-31T22:04:59.707Z,16.00
2022-12-31T22:07:07.848Z,16.00
2022-12-31T22:09:34.734Z,16.00
2022-12-31T22:12:01.548Z,16.00
2022-12-31T22:14:28.304Z,15.90
2022-12-31T22:16:55.152Z,16.00
2022-12-31T22:19:21.976Z,16.00
2022-12-31T22:21:48.751Z,16.10
2022-12-31T22:24:15.540Z,16.10
2022-12-31T22:26:46.415Z,16.00
2022-12-31T22:29:13.685Z,16.00
2022-12-31T22:31:40.742Z,16.00
2022-12-31T22:34:07.728Z,15.80
2022-12-31T22:36:34.526Z,16.00
2022-12-31T22:39:01.352Z,16.10
2022-12-31T22:41:28.561Z,16.10
2022-12-31T22:44:03.059Z,16.10
2022-12-31T22:46:31.873Z,16.10
2022-12-31T22:49:00.037Z,16.10
2022-12-31T22:51:55.302Z,16.00
2022-12-31T22:54:16.565Z,16.10
2022-12-31T22:56:43.363Z,16.00
2022-12-31T22:59:10.952Z,15.80
2022-12-31T23:01:37.967Z,15.80
2022-12-31T23:04:05.457Z,15.90
2022-12-31T23:06:32.535Z,15.90
2022-12-31T23:09:18.281Z,15.90
2022-12-31T23:11:45.090Z,15.90
2022-12-31T23:14:35.219Z,15.90
2022-12-31T23:17:30.279Z,15.80
2022-12-31T23:20:18.239Z,15.90
2022-12-31T23:23:04.341Z,16.00
2022-12-31T23:25:33.229Z,15.90
2022-12-31T23:28:00.097Z,15.90
2022-12-31T23:30:27.311Z,15.80
2022-12-31T23:32:54.181Z,15.90
2022-12-31T23:35:21.014Z,15.90
2022-12-31T23:37:47.898Z,15.80
2022-12-31T23:40:20.903Z,15.90
2022-12-31T23:42:49.370Z,15.90
2022-12-31T23:45:16.262Z,15.80
2022-12-31T23:47:43.129Z,15.90
2022-12-31T23:50:10.112Z,15.90
2022-12-31T23:52:36.898Z,15.90
2022-12-31T23:55:04.029Z,15.90
2022-12-31T23:57:30.896Z,15.90
2022-12-31T23:59:57.747Z,15.90
